DWD Radarbild

   
[Quelle: ADDS]
METAR
EDLP 202150Z 28003KT 240V320 9999 BKN035 OVC060 19/15 Q1021 =
TAF
EDLP 201700Z 2018/2118 23007KT 9999 SCT030 BECMG 2018/2021 VRB03KT TEMPO 2018/2103 BKN014 TEMPO 2103/2108 4500 -DZ BR BKN010 =
   
   

Meine WettercamWettercam aus Bielefeld Senne - Blickrichtung Süd-Ostjede Min. ein neues Bild

   
Moon phase
Phase:
Zunehmend

Mondphase:
74%

Alter:
10 Tage

Entfernung:
249,544 Km

Zeit:
00:15:19

Datum:
21-08-2018

   
<<  Aug 2018  >>
 Mo  Di  Mi  Do  Fr  Sa  So 
    1  2  3  4  5
  6  7  8  9101112
13141516171819
20212223242526
2728293031